sensor_id;sensor_type;location;lat;lon;timestamp;temperature;humidity
43015;DHT22;28637;50.554;7.032;2023-09-19T00:01:16;15.20;99.90
43015;DHT22;28637;50.554;7.032;2023-09-19T00:06:20;15.10;99.90
43015;DHT22;28637;50.554;7.032;2023-09-19T00:11:21;15.10;99.90
43015;DHT22;28637;50.554;7.032;2023-09-19T00:16:21;15.00;99.90
43015;DHT22;28637;50.554;7.032;2023-09-19T00:21:22;15.00;99.90
43015;DHT22;28637;50.554;7.032;2023-09-19T00:26:23;15.00;99.90
43015;DHT22;28637;50.554;7.032;2023-09-19T00:31:24;14.90;99.90
43015;DHT22;28637;50.554;7.032;2023-09-19T00:36:25;14.90;99.90
43015;DHT22;28637;50.554;7.032;2023-09-19T00:41:26;14.90;99.90
43015;DHT22;28637;50.554;7.032;2023-09-19T00:46:31;15.00;99.90
43015;DHT22;28637;50.554;7.032;2023-09-19T00:51:33;15.00;99.90
43015;DHT22;28637;50.554;7.032;2023-09-19T00:56:36;14.90;99.90
43015;DHT22;28637;50.554;7.032;2023-09-19T01:01:39;15.00;99.90
43015;DHT22;28637;50.554;7.032;2023-09-19T01:06:40;14.90;99.90
43015;DHT22;28637;50.554;7.032;2023-09-19T01:11:43;14.80;99.90
43015;DHT22;28637;50.554;7.032;2023-09-19T01:16:56;14.90;99.90
43015;DHT22;28637;50.554;7.032;2023-09-19T01:28:06;15.20;99.90
43015;DHT22;28637;50.554;7.032;2023-09-19T01:33:12;15.30;99.90
43015;DHT22;28637;50.554;7.032;2023-09-19T01:38:15;15.20;99.90
43015;DHT22;28637;50.554;7.032;2023-09-19T01:43:42;15.00;99.90
43015;DHT22;28637;50.554;7.032;2023-09-19T01:48:54;14.80;99.90
43015;DHT22;28637;50.554;7.032;2023-09-19T01:54:09;14.70;99.90
43015;DHT22;28637;50.554;7.032;2023-09-19T01:59:16;14.60;99.90
43015;DHT22;28637;50.554;7.032;2023-09-19T02:04:17;14.60;99.90
43015;DHT22;28637;50.554;7.032;2023-09-19T02:09:17;14.60;99.90
43015;DHT22;28637;50.554;7.032;2023-09-19T02:14:18;14.50;99.90
43015;DHT22;28637;50.554;7.032;2023-09-19T02:19:21;14.50;99.90
43015;DHT22;28637;50.554;7.032;2023-09-19T02:24:22;14.50;99.90
43015;DHT22;28637;50.554;7.032;2023-09-19T02:29:27;14.50;99.90
43015;DHT22;28637;50.554;7.032;2023-09-19T02:34:29;14.60;99.90
43015;DHT22;28637;50.554;7.032;2023-09-19T02:39:30;14.50;99.90
43015;DHT22;28637;50.554;7.032;2023-09-19T02:44:31;14.50;99.90
43015;DHT22;28637;50.554;7.032;2023-09-19T02:49:32;14.40;99.90
43015;DHT22;28637;50.554;7.032;2023-09-19T02:54:33;14.30;99.90
43015;DHT22;28637;50.554;7.032;2023-09-19T02:59:33;14.20;99.90
43015;DHT22;28637;50.554;7.032;2023-09-19T03:04:37;14.30;99.90
43015;DHT22;28637;50.554;7.032;2023-09-19T03:09:37;14.20;99.90
43015;DHT22;28637;50.554;7.032;2023-09-19T03:14:38;14.20;99.90
43015;DHT22;28637;50.554;7.032;2023-09-19T03:19:39;14.20;99.90
43015;DHT22;28637;50.554;7.032;2023-09-19T03:24:39;14.20;99.90
43015;DHT22;28637;50.554;7.032;2023-09-19T03:29:40;14.20;99.90
43015;DHT22;28637;50.554;7.032;2023-09-19T03:34:41;14.20;99.90
43015;DHT22;28637;50.554;7.032;2023-09-19T03:39:43;14.00;99.90
43015;DHT22;28637;50.554;7.032;2023-09-19T03:44:44;14.00;99.90
43015;DHT22;28637;50.554;7.032;2023-09-19T03:49:45;14.00;99.90
43015;DHT22;28637;50.554;7.032;2023-09-19T03:54:45;13.90;99.90
43015;DHT22;28637;50.554;7.032;2023-09-19T03:59:46;13.90;99.90
43015;DHT22;28637;50.554;7.032;2023-09-19T04:04:51;14.00;99.90
43015;DHT22;28637;50.554;7.032;2023-09-19T04:09:52;14.00;99.90
43015;DHT22;28637;50.554;7.032;2023-09-19T04:14:56;14.00;99.90
43015;DHT22;28637;50.554;7.032;2023-09-19T04:19:56;13.90;99.90
43015;DHT22;28637;50.554;7.032;2023-09-19T04:24:57;14.00;99.90
43015;DHT22;28637;50.554;7.032;2023-09-19T04:29:58;14.20;99.90
43015;DHT22;28637;50.554;7.032;2023-09-19T04:34:59;14.20;99.90
43015;DHT22;28637;50.554;7.032;2023-09-19T04:40:02;14.20;99.90
43015;DHT22;28637;50.554;7.032;2023-09-19T04:45:06;14.20;99.90
43015;DHT22;28637;50.554;7.032;2023-09-19T04:50:08;14.20;99.90
43015;DHT22;28637;50.554;7.032;2023-09-19T04:55:13;14.20;99.90
43015;DHT22;28637;50.554;7.032;2023-09-19T05:00:19;14.20;99.90
43015;DHT22;28637;50.554;7.032;2023-09-19T05:05:23;13.90;99.90
43015;DHT22;28637;50.554;7.032;2023-09-19T05:10:25;13.90;99.90
43015;DHT22;28637;50.554;7.032;2023-09-19T05:15:26;13.90;99.90
43015;DHT22;28637;50.554;7.032;2023-09-19T05:20:27;13.90;99.90
43015;DHT22;28637;50.554;7.032;2023-09-19T05:25:33;13.90;99.90
43015;DHT22;28637;50.554;7.032;2023-09-19T05:30:38;13.80;99.90
43015;DHT22;28637;50.554;7.032;2023-09-19T05:35:38;13.90;99.90
43015;DHT22;28637;50.554;7.032;2023-09-19T05:40:42;13.80;99.90
43015;DHT22;28637;50.554;7.032;2023-09-19T05:45:43;13.60;99.90
43015;DHT22;28637;50.554;7.032;2023-09-19T05:50:44;13.60;99.90
43015;DHT22;28637;50.554;7.032;2023-09-19T05:55:47;13.50;99.90
43015;DHT22;28637;50.554;7.032;2023-09-19T06:00:47;13.60;99.90
43015;DHT22;28637;50.554;7.032;2023-09-19T06:05:49;13.60;99.90
43015;DHT22;28637;50.554;7.032;2023-09-19T06:10:51;13.60;99.90
43015;DHT22;28637;50.554;7.032;2023-09-19T06:15:52;13.60;99.90
43015;DHT22;28637;50.554;7.032;2023-09-19T06:20:53;13.80;99.90
43015;DHT22;28637;50.554;7.032;2023-09-19T06:25:54;13.80;99.90
43015;DHT22;28637;50.554;7.032;2023-09-19T06:30:55;13.80;99.90
43015;DHT22;28637;50.554;7.032;2023-09-19T06:35:55;13.90;99.90
43015;DHT22;28637;50.554;7.032;2023-09-19T06:41:00;13.90;99.90
43015;DHT22;28637;50.554;7.032;2023-09-19T06:46:01;13.90;99.90
43015;DHT22;28637;50.554;7.032;2023-09-19T06:51:02;13.90;99.90
43015;DHT22;28637;50.554;7.032;2023-09-19T06:56:05;14.00;99.90
43015;DHT22;28637;50.554;7.032;2023-09-19T07:01:06;14.00;99.90
43015;DHT22;28637;50.554;7.032;2023-09-19T07:06:07;14.10;99.90
43015;DHT22;28637;50.554;7.032;2023-09-19T07:11:09;14.20;99.90
43015;DHT22;28637;50.554;7.032;2023-09-19T07:16:09;14.40;99.90
43015;DHT22;28637;50.554;7.032;2023-09-19T07:21:27;14.40;99.90
43015;DHT22;28637;50.554;7.032;2023-09-19T07:26:28;14.60;99.90
43015;DHT22;28637;50.554;7.032;2023-09-19T07:31:29;14.80;99.90
43015;DHT22;28637;50.554;7.032;2023-09-19T07:36:31;14.80;99.90
43015;DHT22;28637;50.554;7.032;2023-09-19T07:41:33;14.80;99.90
43015;DHT22;28637;50.554;7.032;2023-09-19T07:46:34;15.00;99.90
43015;DHT22;28637;50.554;7.032;2023-09-19T07:51:34;15.10;99.90
43015;DHT22;28637;50.554;7.032;2023-09-19T07:56:35;15.30;99.90
43015;DHT22;28637;50.554;7.032;2023-09-19T08:01:35;15.30;99.90
43015;DHT22;28637;50.554;7.032;2023-09-19T08:06:37;15.40;99.90
43015;DHT22;28637;50.554;7.032;2023-09-19T08:11:39;15.50;99.90
43015;DHT22;28637;50.554;7.032;2023-09-19T08:16:40;15.50;99.90
43015;DHT22;28637;50.554;7.032;2023-09-19T08:21:40;15.60;99.90
43015;DHT22;28637;50.554;7.032;2023-09-19T08:26:41;15.50;99.90
43015;DHT22;28637;50.554;7.032;2023-09-19T08:31:42;15.70;99.90
43015;DHT22;28637;50.554;7.032;2023-09-19T08:36:43;15.80;99.90
43015;DHT22;28637;50.554;7.032;2023-09-19T08:41:45;15.90;99.90
43015;DHT22;28637;50.554;7.032;2023-09-19T08:46:46;16.00;99.90
43015;DHT22;28637;50.554;7.032;2023-09-19T08:51:54;16.10;99.90
43015;DHT22;28637;50.554;7.032;2023-09-19T08:57:00;16.10;99.90
43015;DHT22;28637;50.554;7.032;2023-09-19T09:02:16;16.10;99.90
43015;DHT22;28637;50.554;7.032;2023-09-19T09:07:20;16.50;99.90
43015;DHT22;28637;50.554;7.032;2023-09-19T09:12:22;16.70;99.90
43015;DHT22;28637;50.554;7.032;2023-09-19T09:17:24;16.80;99.90
43015;DHT22;28637;50.554;7.032;2023-09-19T09:22:25;17.00;99.90
43015;DHT22;28637;50.554;7.032;2023-09-19T09:27:25;17.00;99.90
43015;DHT22;28637;50.554;7.032;2023-09-19T09:32:28;16.90;99.90
43015;DHT22;28637;50.554;7.032;2023-09-19T09:37:29;16.90;99.90
43015;DHT22;28637;50.554;7.032;2023-09-19T09:42:35;17.00;99.90
43015;DHT22;28637;50.554;7.032;2023-09-19T09:52:50;17.60;99.90
43015;DHT22;28637;50.554;7.032;2023-09-19T09:58:18;17.60;99.90
43015;DHT22;28637;50.554;7.032;2023-09-19T10:03:21;18.10;99.90
43015;DHT22;28637;50.554;7.032;2023-09-19T10:08:32;18.20;99.90
43015;DHT22;28637;50.554;7.032;2023-09-19T10:13:35;18.20;99.90
43015;DHT22;28637;50.554;7.032;2023-09-19T10:18:38;18.10;99.90
43015;DHT22;28637;50.554;7.032;2023-09-19T10:23:42;18.20;99.90
43015;DHT22;28637;50.554;7.032;2023-09-19T10:28:48;18.30;99.90
43015;DHT22;28637;50.554;7.032;2023-09-19T10:33:51;18.40;99.90
43015;DHT22;28637;50.554;7.032;2023-09-19T10:38:56;18.40;99.90
43015;DHT22;28637;50.554;7.032;2023-09-19T10:43:58;18.20;99.90
43015;DHT22;28637;50.554;7.032;2023-09-19T10:49:00;18.40;99.90
43015;DHT22;28637;50.554;7.032;2023-09-19T10:54:10;18.20;99.90
43015;DHT22;28637;50.554;7.032;2023-09-19T10:59:18;18.10;99.90
43015;DHT22;28637;50.554;7.032;2023-09-19T11:04:29;18.00;99.90
43015;DHT22;28637;50.554;7.032;2023-09-19T11:10:08;18.40;99.90
43015;DHT22;28637;50.554;7.032;2023-09-19T11:26:41;18.90;99.90
43015;DHT22;28637;50.554;7.032;2023-09-19T11:31:48;19.40;99.90
43015;DHT22;28637;50.554;7.032;2023-09-19T11:36:50;19.70;99.90
43015;DHT22;28637;50.554;7.032;2023-09-19T11:41:50;20.00;99.90
43015;DHT22;28637;50.554;7.032;2023-09-19T11:46:57;19.60;99.90
43015;DHT22;28637;50.554;7.032;2023-09-19T11:52:02;19.40;99.90
43015;DHT22;28637;50.554;7.032;2023-09-19T11:57:06;19.40;99.90
43015;DHT22;28637;50.554;7.032;2023-09-19T12:02:11;19.40;99.90
43015;DHT22;28637;50.554;7.032;2023-09-19T12:07:19;19.30;99.90
43015;DHT22;28637;50.554;7.032;2023-09-19T12:12:26;19.80;99.90
43015;DHT22;28637;50.554;7.032;2023-09-19T12:17:37;19.80;99.90
43015;DHT22;28637;50.554;7.032;2023-09-19T12:22:45;19.90;99.90
43015;DHT22;28637;50.554;7.032;2023-09-19T12:27:50;19.60;99.90
43015;DHT22;28637;50.554;7.032;2023-09-19T12:32:53;20.00;99.90
43015;DHT22;28637;50.554;7.032;2023-09-19T12:37:54;20.50;99.90
43015;DHT22;28637;50.554;7.032;2023-09-19T12:42:55;20.60;99.90
43015;DHT22;28637;50.554;7.032;2023-09-19T12:48:24;20.10;99.90
43015;DHT22;28637;50.554;7.032;2023-09-19T12:53:40;20.00;99.90
43015;DHT22;28637;50.554;7.032;2023-09-19T12:58:58;20.70;99.90
43015;DHT22;28637;50.554;7.032;2023-09-19T13:04:23;21.00;99.90
43015;DHT22;28637;50.554;7.032;2023-09-19T13:09:28;21.10;99.90
43015;DHT22;28637;50.554;7.032;2023-09-19T13:14:34;20.80;99.90
43015;DHT22;28637;50.554;7.032;2023-09-19T13:19:45;21.20;99.90
43015;DHT22;28637;50.554;7.032;2023-09-19T13:24:57;21.40;99.90
43015;DHT22;28637;50.554;7.032;2023-09-19T13:29:59;21.70;99.90
43015;DHT22;28637;50.554;7.032;2023-09-19T13:35:00;21.60;99.90
43015;DHT22;28637;50.554;7.032;2023-09-19T13:40:01;21.20;99.90
43015;DHT22;28637;50.554;7.032;2023-09-19T13:45:05;21.20;99.90
43015;DHT22;28637;50.554;7.032;2023-09-19T13:50:06;21.50;99.90
43015;DHT22;28637;50.554;7.032;2023-09-19T13:55:08;21.30;99.90
43015;DHT22;28637;50.554;7.032;2023-09-19T14:00:09;21.30;99.90
43015;DHT22;28637;50.554;7.032;2023-09-19T14:05:10;22.40;99.90
43015;DHT22;28637;50.554;7.032;2023-09-19T14:10:15;22.40;99.50
43015;DHT22;28637;50.554;7.032;2023-09-19T14:15:16;22.50;99.90
43015;DHT22;28637;50.554;7.032;2023-09-19T14:20:16;22.70;99.10
43015;DHT22;28637;50.554;7.032;2023-09-19T14:25:17;22.60;97.60
43015;DHT22;28637;50.554;7.032;2023-09-19T14:30:17;21.60;98.10
43015;DHT22;28637;50.554;7.032;2023-09-19T14:35:18;21.20;98.70
43015;DHT22;28637;50.554;7.032;2023-09-19T14:40:19;21.10;99.40
43015;DHT22;28637;50.554;7.032;2023-09-19T14:45:20;21.00;99.50
43015;DHT22;28637;50.554;7.032;2023-09-19T14:50:21;20.60;99.80
43015;DHT22;28637;50.554;7.032;2023-09-19T14:55:22;21.10;99.90
43015;DHT22;28637;50.554;7.032;2023-09-19T15:00:23;21.60;99.60
43015;DHT22;28637;50.554;7.032;2023-09-19T15:05:24;21.80;99.00
43015;DHT22;28637;50.554;7.032;2023-09-19T15:10:24;22.40;97.90
43015;DHT22;28637;50.554;7.032;2023-09-19T15:15:25;23.10;97.50
43015;DHT22;28637;50.554;7.032;2023-09-19T15:20:26;21.80;97.80
43015;DHT22;28637;50.554;7.032;2023-09-19T15:25:27;21.80;98.20
43015;DHT22;28637;50.554;7.032;2023-09-19T15:30:27;22.20;98.10
43015;DHT22;28637;50.554;7.032;2023-09-19T15:35:28;22.60;98.00
43015;DHT22;28637;50.554;7.032;2023-09-19T15:40:29;22.10;98.50
43015;DHT22;28637;50.554;7.032;2023-09-19T15:45:29;21.10;99.00
43015;DHT22;28637;50.554;7.032;2023-09-19T15:50:30;21.40;99.60
43015;DHT22;28637;50.554;7.032;2023-09-19T15:55:31;22.30;98.60
43015;DHT22;28637;50.554;7.032;2023-09-19T16:00:32;21.90;98.60
43015;DHT22;28637;50.554;7.032;2023-09-19T16:05:37;21.40;99.90
43015;DHT22;28637;50.554;7.032;2023-09-19T16:10:40;22.60;98.60
43015;DHT22;28637;50.554;7.032;2023-09-19T16:15:41;21.80;99.40
43015;DHT22;28637;50.554;7.032;2023-09-19T16:20:42;21.70;99.00
43015;DHT22;28637;50.554;7.032;2023-09-19T16:25:42;20.90;99.90
43015;DHT22;28637;50.554;7.032;2023-09-19T16:30:43;22.20;99.50
43015;DHT22;28637;50.554;7.032;2023-09-19T16:35:44;24.30;97.10
43015;DHT22;28637;50.554;7.032;2023-09-19T16:40:52;24.30;96.90
43015;DHT22;28637;50.554;7.032;2023-09-19T16:45:56;24.80;96.30
43015;DHT22;28637;50.554;7.032;2023-09-19T16:51:06;23.70;96.70
43015;DHT22;28637;50.554;7.032;2023-09-19T16:56:10;22.30;98.30
43015;DHT22;28637;50.554;7.032;2023-09-19T17:01:12;20.90;99.40
43015;DHT22;28637;50.554;7.032;2023-09-19T17:06:14;19.80;99.90
43015;DHT22;28637;50.554;7.032;2023-09-19T17:11:16;19.20;99.90
43015;DHT22;28637;50.554;7.032;2023-09-19T17:16:18;18.90;99.90
43015;DHT22;28637;50.554;7.032;2023-09-19T17:21:22;18.80;99.90
43015;DHT22;28637;50.554;7.032;2023-09-19T17:26:23;18.50;99.90
43015;DHT22;28637;50.554;7.032;2023-09-19T17:31:26;18.40;99.90
43015;DHT22;28637;50.554;7.032;2023-09-19T17:36:26;18.30;99.90
43015;DHT22;28637;50.554;7.032;2023-09-19T17:41:27;18.20;99.90
43015;DHT22;28637;50.554;7.032;2023-09-19T17:46:28;18.20;99.90
43015;DHT22;28637;50.554;7.032;2023-09-19T17:51:29;18.10;99.90
43015;DHT22;28637;50.554;7.032;2023-09-19T17:56:30;18.10;99.90
43015;DHT22;28637;50.554;7.032;2023-09-19T18:01:31;18.00;99.90
43015;DHT22;28637;50.554;7.032;2023-09-19T18:06:32;18.00;99.90
43015;DHT22;28637;50.554;7.032;2023-09-19T18:11:33;17.90;99.90
43015;DHT22;28637;50.554;7.032;2023-09-19T18:16:34;17.90;99.90
43015;DHT22;28637;50.554;7.032;2023-09-19T18:21:34;18.00;99.90
43015;DHT22;28637;50.554;7.032;2023-09-19T18:26:35;17.80;99.90
43015;DHT22;28637;50.554;7.032;2023-09-19T18:31:38;17.80;99.90
43015;DHT22;28637;50.554;7.032;2023-09-19T18:36:39;17.80;99.90
43015;DHT22;28637;50.554;7.032;2023-09-19T18:41:40;17.70;99.90
43015;DHT22;28637;50.554;7.032;2023-09-19T18:46:40;17.60;99.90
43015;DHT22;28637;50.554;7.032;2023-09-19T18:51:43;17.60;99.90
43015;DHT22;28637;50.554;7.032;2023-09-19T18:56:45;17.50;99.90
43015;DHT22;28637;50.554;7.032;2023-09-19T19:01:47;17.50;99.90
43015;DHT22;28637;50.554;7.032;2023-09-19T19:06:48;17.40;99.90
43015;DHT22;28637;50.554;7.032;2023-09-19T19:11:49;17.40;99.90
43015;DHT22;28637;50.554;7.032;2023-09-19T19:16:49;17.50;99.90
43015;DHT22;28637;50.554;7.032;2023-09-19T19:21:50;17.40;99.90
43015;DHT22;28637;50.554;7.032;2023-09-19T19:26:51;17.40;99.90
43015;DHT22;28637;50.554;7.032;2023-09-19T19:31:52;17.40;99.90
43015;DHT22;28637;50.554;7.032;2023-09-19T19:36:54;17.40;99.90
43015;DHT22;28637;50.554;7.032;2023-09-19T19:41:55;17.40;99.90
43015;DHT22;28637;50.554;7.032;2023-09-19T19:46:56;17.40;99.90
43015;DHT22;28637;50.554;7.032;2023-09-19T19:51:57;17.40;99.90
43015;DHT22;28637;50.554;7.032;2023-09-19T19:56:58;17.40;99.90
43015;DHT22;28637;50.554;7.032;2023-09-19T20:01:58;17.30;99.90
43015;DHT22;28637;50.554;7.032;2023-09-19T20:06:59;17.30;99.90
43015;DHT22;28637;50.554;7.032;2023-09-19T20:12:00;17.30;99.90
43015;DHT22;28637;50.554;7.032;2023-09-19T20:17:01;17.30;99.90
43015;DHT22;28637;50.554;7.032;2023-09-19T20:22:02;17.30;99.90
43015;DHT22;28637;50.554;7.032;2023-09-19T20:27:06;17.30;99.90
43015;DHT22;28637;50.554;7.032;2023-09-19T20:32:07;17.20;99.90
43015;DHT22;28637;50.554;7.032;2023-09-19T20:37:09;17.10;99.90
43015;DHT22;28637;50.554;7.032;2023-09-19T20:42:10;17.10;99.90
43015;DHT22;28637;50.554;7.032;2023-09-19T20:47:11;17.00;99.90
43015;DHT22;28637;50.554;7.032;2023-09-19T20:52:12;17.00;99.90
43015;DHT22;28637;50.554;7.032;2023-09-19T20:57:13;17.00;99.90
43015;DHT22;28637;50.554;7.032;2023-09-19T21:02:16;17.00;99.90
43015;DHT22;28637;50.554;7.032;2023-09-19T21:07:17;17.00;99.90
43015;DHT22;28637;50.554;7.032;2023-09-19T21:12:18;17.00;99.90
43015;DHT22;28637;50.554;7.032;2023-09-19T21:17:19;17.00;99.90
43015;DHT22;28637;50.554;7.032;2023-09-19T21:22:20;17.00;99.90
43015;DHT22;28637;50.554;7.032;2023-09-19T21:27:21;16.90;99.90
43015;DHT22;28637;50.554;7.032;2023-09-19T21:32:22;16.90;99.90
43015;DHT22;28637;50.554;7.032;2023-09-19T21:37:23;16.70;99.90
43015;DHT22;28637;50.554;7.032;2023-09-19T21:42:24;16.70;99.90
43015;DHT22;28637;50.554;7.032;2023-09-19T21:47:24;16.90;99.90
43015;DHT22;28637;50.554;7.032;2023-09-19T21:52:25;16.90;99.90
43015;DHT22;28637;50.554;7.032;2023-09-19T21:57:26;16.90;99.90
43015;DHT22;28637;50.554;7.032;2023-09-19T22:02:26;16.90;99.90
43015;DHT22;28637;50.554;7.032;2023-09-19T22:07:27;16.90;99.90
43015;DHT22;28637;50.554;7.032;2023-09-19T22:12:28;16.90;99.90
43015;DHT22;28637;50.554;7.032;2023-09-19T22:17:30;16.90;99.90
43015;DHT22;28637;50.554;7.032;2023-09-19T22:22:32;16.90;99.90
43015;DHT22;28637;50.554;7.032;2023-09-19T22:27:32;16.80;99.90
43015;DHT22;28637;50.554;7.032;2023-09-19T22:32:34;16.80;99.90
43015;DHT22;28637;50.554;7.032;2023-09-19T22:37:35;16.70;99.90
43015;DHT22;28637;50.554;7.032;2023-09-19T22:42:37;16.70;99.90
43015;DHT22;28637;50.554;7.032;2023-09-19T22:47:41;16.70;99.90
43015;DHT22;28637;50.554;7.032;2023-09-19T22:52:44;16.70;99.90
43015;DHT22;28637;50.554;7.032;2023-09-19T22:57:48;16.60;99.90
43015;DHT22;28637;50.554;7.032;2023-09-19T23:02:49;16.60;99.90
43015;DHT22;28637;50.554;7.032;2023-09-19T23:07:51;16.70;99.90
43015;DHT22;28637;50.554;7.032;2023-09-19T23:12:58;16.70;99.90
43015;DHT22;28637;50.554;7.032;2023-09-19T23:17:58;16.60;99.90
43015;DHT22;28637;50.554;7.032;2023-09-19T23:23:00;16.60;99.90
43015;DHT22;28637;50.554;7.032;2023-09-19T23:28:01;16.50;99.90
43015;DHT22;28637;50.554;7.032;2023-09-19T23:33:32;16.40;99.90
43015;DHT22;28637;50.554;7.032;2023-09-19T23:38:32;16.40;99.90
43015;DHT22;28637;50.554;7.032;2023-09-19T23:43:34;16.40;99.90
43015;DHT22;28637;50.554;7.032;2023-09-19T23:48:36;16.40;99.90
43015;DHT22;28637;50.554;7.032;2023-09-19T23:53:40;16.40;99.90
43015;DHT22;28637;50.554;7.032;2023-09-19T23:58:41;16.30;99.90
